sensor_id;sensor_type;location;lat;lon;timestamp;temperature;humidity
8824;DHT22;4448;50.904;4.694;2023-07-31T00:00:45;18.30;99.90
8824;DHT22;4448;50.904;4.694;2023-07-31T00:03:11;18.10;99.90
8824;DHT22;4448;50.904;4.694;2023-07-31T00:05:37;18.10;99.90
8824;DHT22;4448;50.904;4.694;2023-07-31T00:08:03;18.10;99.90
8824;DHT22;4448;50.904;4.694;2023-07-31T00:10:28;18.10;99.90
8824;DHT22;4448;50.904;4.694;2023-07-31T00:12:54;17.90;99.90
8824;DHT22;4448;50.904;4.694;2023-07-31T00:15:19;18.20;99.90
8824;DHT22;4448;50.904;4.694;2023-07-31T00:17:45;18.00;99.90
8824;DHT22;4448;50.904;4.694;2023-07-31T00:20:11;18.00;99.90
8824;DHT22;4448;50.904;4.694;2023-07-31T00:22:36;17.70;99.90
8824;DHT22;4448;50.904;4.694;2023-07-31T00:25:02;18.20;99.90
8824;DHT22;4448;50.904;4.694;2023-07-31T00:27:28;18.10;99.90
8824;DHT22;4448;50.904;4.694;2023-07-31T00:29:53;18.10;99.90
8824;DHT22;4448;50.904;4.694;2023-07-31T00:32:19;18.10;99.90
8824;DHT22;4448;50.904;4.694;2023-07-31T00:34:45;18.20;99.90
8824;DHT22;4448;50.904;4.694;2023-07-31T00:37:10;18.30;99.90
8824;DHT22;4448;50.904;4.694;2023-07-31T00:39:36;18.50;99.90
8824;DHT22;4448;50.904;4.694;2023-07-31T00:42:02;18.20;99.90
8824;DHT22;4448;50.904;4.694;2023-07-31T00:44:27;18.00;99.90
8824;DHT22;4448;50.904;4.694;2023-07-31T00:46:53;18.20;99.90
8824;DHT22;4448;50.904;4.694;2023-07-31T00:49:20;18.30;99.90
8824;DHT22;4448;50.904;4.694;2023-07-31T00:51:46;18.10;99.90
8824;DHT22;4448;50.904;4.694;2023-07-31T00:54:12;18.30;99.90
8824;DHT22;4448;50.904;4.694;2023-07-31T00:56:38;18.30;99.90
8824;DHT22;4448;50.904;4.694;2023-07-31T00:59:04;18.70;99.90
8824;DHT22;4448;50.904;4.694;2023-07-31T01:01:29;18.30;99.90
8824;DHT22;4448;50.904;4.694;2023-07-31T01:03:55;18.30;99.90
8824;DHT22;4448;50.904;4.694;2023-07-31T01:09:37;18.30;99.90
8824;DHT22;4448;50.904;4.694;2023-07-31T01:12:07;18.40;99.90
8824;DHT22;4448;50.904;4.694;2023-07-31T01:14:33;18.30;99.90
8824;DHT22;4448;50.904;4.694;2023-07-31T01:16:58;18.40;99.90
8824;DHT22;4448;50.904;4.694;2023-07-31T01:19:25;18.30;99.90
8824;DHT22;4448;50.904;4.694;2023-07-31T01:24:57;18.40;99.90
8824;DHT22;4448;50.904;4.694;2023-07-31T01:27:25;18.40;99.90
8824;DHT22;4448;50.904;4.694;2023-07-31T01:32:25;18.40;99.90
8824;DHT22;4448;50.904;4.694;2023-07-31T01:34:53;18.10;99.90
8824;DHT22;4448;50.904;4.694;2023-07-31T01:37:20;18.40;99.90
8824;DHT22;4448;50.904;4.694;2023-07-31T01:39:46;19.00;99.90
8824;DHT22;4448;50.904;4.694;2023-07-31T01:42:11;18.50;99.90
8824;DHT22;4448;50.904;4.694;2023-07-31T01:44:37;18.20;99.90
8824;DHT22;4448;50.904;4.694;2023-07-31T01:47:02;18.50;99.90
8824;DHT22;4448;50.904;4.694;2023-07-31T01:49:28;18.50;99.90
8824;DHT22;4448;50.904;4.694;2023-07-31T01:51:54;18.40;99.90
8824;DHT22;4448;50.904;4.694;2023-07-31T01:54:19;18.40;99.90
8824;DHT22;4448;50.904;4.694;2023-07-31T01:56:45;18.40;99.90
8824;DHT22;4448;50.904;4.694;2023-07-31T01:59:10;18.60;99.90
8824;DHT22;4448;50.904;4.694;2023-07-31T02:01:36;18.40;99.90
8824;DHT22;4448;50.904;4.694;2023-07-31T02:04:02;18.60;99.90
8824;DHT22;4448;50.904;4.694;2023-07-31T02:06:28;18.40;99.90
8824;DHT22;4448;50.904;4.694;2023-07-31T02:08:53;18.20;99.90
8824;DHT22;4448;50.904;4.694;2023-07-31T02:11:19;18.40;99.90
8824;DHT22;4448;50.904;4.694;2023-07-31T02:13:44;18.40;99.90
8824;DHT22;4448;50.904;4.694;2023-07-31T02:16:10;18.20;99.90
8824;DHT22;4448;50.904;4.694;2023-07-31T02:18:36;18.40;99.90
8824;DHT22;4448;50.904;4.694;2023-07-31T02:21:02;18.50;99.90
8824;DHT22;4448;50.904;4.694;2023-07-31T02:23:27;18.50;99.90
8824;DHT22;4448;50.904;4.694;2023-07-31T02:25:53;18.50;99.90
8824;DHT22;4448;50.904;4.694;2023-07-31T02:28:18;18.60;99.90
8824;DHT22;4448;50.904;4.694;2023-07-31T02:30:45;18.70;99.90
8824;DHT22;4448;50.904;4.694;2023-07-31T02:33:15;18.40;99.90
8824;DHT22;4448;50.904;4.694;2023-07-31T02:35:41;18.40;99.90
8824;DHT22;4448;50.904;4.694;2023-07-31T02:38:07;18.40;99.90
8824;DHT22;4448;50.904;4.694;2023-07-31T02:40:33;18.40;99.90
8824;DHT22;4448;50.904;4.694;2023-07-31T02:42:58;18.20;99.90
8824;DHT22;4448;50.904;4.694;2023-07-31T02:45:24;18.40;99.90
8824;DHT22;4448;50.904;4.694;2023-07-31T02:47:49;18.30;99.90
8824;DHT22;4448;50.904;4.694;2023-07-31T02:50:15;18.50;99.90
8824;DHT22;4448;50.904;4.694;2023-07-31T02:52:41;18.10;99.90
8824;DHT22;4448;50.904;4.694;2023-07-31T02:55:06;18.50;99.90
8824;DHT22;4448;50.904;4.694;2023-07-31T02:57:32;18.40;99.90
8824;DHT22;4448;50.904;4.694;2023-07-31T02:59:58;18.50;99.90
8824;DHT22;4448;50.904;4.694;2023-07-31T03:02:23;18.50;99.90
8824;DHT22;4448;50.904;4.694;2023-07-31T03:04:49;18.50;99.90
8824;DHT22;4448;50.904;4.694;2023-07-31T03:07:15;18.50;99.90
8824;DHT22;4448;50.904;4.694;2023-07-31T03:09:40;18.50;99.90
8824;DHT22;4448;50.904;4.694;2023-07-31T03:12:06;18.20;99.90
8824;DHT22;4448;50.904;4.694;2023-07-31T03:14:32;18.20;99.90
8824;DHT22;4448;50.904;4.694;2023-07-31T03:16:59;18.40;99.90
8824;DHT22;4448;50.904;4.694;2023-07-31T03:19:25;19.00;99.90
8824;DHT22;4448;50.904;4.694;2023-07-31T03:21:50;18.00;99.90
8824;DHT22;4448;50.904;4.694;2023-07-31T03:24:16;18.40;99.90
8824;DHT22;4448;50.904;4.694;2023-07-31T03:26:41;18.30;99.90
8824;DHT22;4448;50.904;4.694;2023-07-31T03:29:08;18.40;99.90
8824;DHT22;4448;50.904;4.694;2023-07-31T03:31:34;18.50;99.90
8824;DHT22;4448;50.904;4.694;2023-07-31T03:33:59;18.50;99.90
8824;DHT22;4448;50.904;4.694;2023-07-31T03:36:25;18.40;99.90
8824;DHT22;4448;50.904;4.694;2023-07-31T03:38:52;18.50;99.90
8824;DHT22;4448;50.904;4.694;2023-07-31T03:41:17;18.50;99.90
8824;DHT22;4448;50.904;4.694;2023-07-31T03:43:44;18.50;99.90
8824;DHT22;4448;50.904;4.694;2023-07-31T03:46:10;18.60;99.90
8824;DHT22;4448;50.904;4.694;2023-07-31T03:48:36;18.50;99.90
8824;DHT22;4448;50.904;4.694;2023-07-31T03:51:02;18.60;99.90
8824;DHT22;4448;50.904;4.694;2023-07-31T03:53:27;18.50;99.90
8824;DHT22;4448;50.904;4.694;2023-07-31T03:55:53;18.50;99.90
8824;DHT22;4448;50.904;4.694;2023-07-31T03:58:19;18.50;99.90
8824;DHT22;4448;50.904;4.694;2023-07-31T04:00:46;18.50;99.90
8824;DHT22;4448;50.904;4.694;2023-07-31T04:03:12;18.70;99.90
8824;DHT22;4448;50.904;4.694;2023-07-31T04:05:38;18.20;99.90
8824;DHT22;4448;50.904;4.694;2023-07-31T04:08:05;18.60;99.90
8824;DHT22;4448;50.904;4.694;2023-07-31T04:10:31;18.90;99.90
8824;DHT22;4448;50.904;4.694;2023-07-31T04:12:59;18.80;99.90
8824;DHT22;4448;50.904;4.694;2023-07-31T04:15:25;18.40;99.90
8824;DHT22;4448;50.904;4.694;2023-07-31T04:17:50;18.40;99.90
8824;DHT22;4448;50.904;4.694;2023-07-31T04:20:16;18.40;99.90
8824;DHT22;4448;50.904;4.694;2023-07-31T04:22:41;18.40;99.90
8824;DHT22;4448;50.904;4.694;2023-07-31T04:25:07;18.30;99.90
8824;DHT22;4448;50.904;4.694;2023-07-31T04:27:33;18.30;99.90
8824;DHT22;4448;50.904;4.694;2023-07-31T04:29:59;18.30;99.90
8824;DHT22;4448;50.904;4.694;2023-07-31T04:32:24;18.30;99.90
8824;DHT22;4448;50.904;4.694;2023-07-31T04:34:50;18.30;99.90
8824;DHT22;4448;50.904;4.694;2023-07-31T04:37:15;18.30;99.90
8824;DHT22;4448;50.904;4.694;2023-07-31T04:39:41;18.30;99.90
8824;DHT22;4448;50.904;4.694;2023-07-31T04:42:07;18.30;99.90
8824;DHT22;4448;50.904;4.694;2023-07-31T04:44:33;18.30;99.90
8824;DHT22;4448;50.904;4.694;2023-07-31T04:46:58;18.30;99.90
8824;DHT22;4448;50.904;4.694;2023-07-31T04:49:24;18.20;99.90
8824;DHT22;4448;50.904;4.694;2023-07-31T04:51:50;18.30;99.90
8824;DHT22;4448;50.904;4.694;2023-07-31T04:54:15;18.20;99.90
8824;DHT22;4448;50.904;4.694;2023-07-31T04:56:41;18.20;99.90
8824;DHT22;4448;50.904;4.694;2023-07-31T04:59:07;18.20;99.90
8824;DHT22;4448;50.904;4.694;2023-07-31T05:01:32;18.20;99.90
8824;DHT22;4448;50.904;4.694;2023-07-31T05:03:58;18.20;99.90
8824;DHT22;4448;50.904;4.694;2023-07-31T05:06:24;18.20;99.90
8824;DHT22;4448;50.904;4.694;2023-07-31T05:08:50;18.20;99.90
8824;DHT22;4448;50.904;4.694;2023-07-31T05:11:15;18.20;99.90
8824;DHT22;4448;50.904;4.694;2023-07-31T05:13:41;18.30;99.90
8824;DHT22;4448;50.904;4.694;2023-07-31T05:16:07;18.20;99.90
8824;DHT22;4448;50.904;4.694;2023-07-31T05:18:32;18.20;99.90
8824;DHT22;4448;50.904;4.694;2023-07-31T05:20:58;18.20;99.90
8824;DHT22;4448;50.904;4.694;2023-07-31T05:23:24;18.20;99.90
8824;DHT22;4448;50.904;4.694;2023-07-31T05:25:49;18.20;99.90
8824;DHT22;4448;50.904;4.694;2023-07-31T05:28:15;18.20;99.90
8824;DHT22;4448;50.904;4.694;2023-07-31T05:30:40;18.20;99.90
8824;DHT22;4448;50.904;4.694;2023-07-31T05:33:06;18.20;99.90
8824;DHT22;4448;50.904;4.694;2023-07-31T05:35:32;18.20;99.90
8824;DHT22;4448;50.904;4.694;2023-07-31T05:37:57;18.20;99.90
8824;DHT22;4448;50.904;4.694;2023-07-31T05:40:23;18.20;99.90
8824;DHT22;4448;50.904;4.694;2023-07-31T05:42:49;18.20;99.90
8824;DHT22;4448;50.904;4.694;2023-07-31T05:45:14;18.20;99.90
8824;DHT22;4448;50.904;4.694;2023-07-31T05:47:40;18.20;99.90
8824;DHT22;4448;50.904;4.694;2023-07-31T05:50:06;18.20;99.90
8824;DHT22;4448;50.904;4.694;2023-07-31T05:52:32;18.20;99.90
8824;DHT22;4448;50.904;4.694;2023-07-31T05:54:57;18.20;99.90
8824;DHT22;4448;50.904;4.694;2023-07-31T05:57:23;18.10;99.90
8824;DHT22;4448;50.904;4.694;2023-07-31T05:59:49;18.20;99.90
8824;DHT22;4448;50.904;4.694;2023-07-31T06:02:14;18.20;99.90
8824;DHT22;4448;50.904;4.694;2023-07-31T06:04:40;18.10;99.90
8824;DHT22;4448;50.904;4.694;2023-07-31T06:07:06;18.10;99.90
8824;DHT22;4448;50.904;4.694;2023-07-31T06:09:32;18.10;99.90
8824;DHT22;4448;50.904;4.694;2023-07-31T06:11:57;18.10;99.90
8824;DHT22;4448;50.904;4.694;2023-07-31T06:14:23;18.10;99.90
8824;DHT22;4448;50.904;4.694;2023-07-31T06:16:49;18.20;99.90
8824;DHT22;4448;50.904;4.694;2023-07-31T06:19:14;18.10;99.90
8824;DHT22;4448;50.904;4.694;2023-07-31T06:21:40;18.10;99.90
8824;DHT22;4448;50.904;4.694;2023-07-31T06:24:08;18.10;99.90
8824;DHT22;4448;50.904;4.694;2023-07-31T06:26:34;18.10;99.90
8824;DHT22;4448;50.904;4.694;2023-07-31T06:29:00;18.00;99.90
8824;DHT22;4448;50.904;4.694;2023-07-31T06:31:26;18.00;99.90
8824;DHT22;4448;50.904;4.694;2023-07-31T06:33:52;18.10;99.90
8824;DHT22;4448;50.904;4.694;2023-07-31T06:36:18;18.10;99.90
8824;DHT22;4448;50.904;4.694;2023-07-31T06:38:44;18.10;99.90
8824;DHT22;4448;50.904;4.694;2023-07-31T06:41:10;18.10;99.90
8824;DHT22;4448;50.904;4.694;2023-07-31T06:43:36;18.10;99.90
8824;DHT22;4448;50.904;4.694;2023-07-31T06:46:09;18.10;99.90
8824;DHT22;4448;50.904;4.694;2023-07-31T06:48:35;18.10;99.90
8824;DHT22;4448;50.904;4.694;2023-07-31T06:51:02;18.10;99.90
8824;DHT22;4448;50.904;4.694;2023-07-31T06:53:28;18.10;99.90
8824;DHT22;4448;50.904;4.694;2023-07-31T06:55:54;18.10;99.90
8824;DHT22;4448;50.904;4.694;2023-07-31T06:58:20;18.10;99.90
8824;DHT22;4448;50.904;4.694;2023-07-31T07:00:47;18.10;99.90
8824;DHT22;4448;50.904;4.694;2023-07-31T07:03:16;18.10;99.90
8824;DHT22;4448;50.904;4.694;2023-07-31T07:05:42;18.20;99.90
8824;DHT22;4448;50.904;4.694;2023-07-31T07:08:07;18.20;99.90
8824;DHT22;4448;50.904;4.694;2023-07-31T07:10:33;18.20;99.90
8824;DHT22;4448;50.904;4.694;2023-07-31T07:12:59;18.20;99.90
8824;DHT22;4448;50.904;4.694;2023-07-31T07:15:25;18.20;99.90
8824;DHT22;4448;50.904;4.694;2023-07-31T07:17:50;18.30;99.90
8824;DHT22;4448;50.904;4.694;2023-07-31T07:20:16;18.30;99.90
8824;DHT22;4448;50.904;4.694;2023-07-31T07:22:42;18.30;99.90
8824;DHT22;4448;50.904;4.694;2023-07-31T07:25:10;18.30;99.90
8824;DHT22;4448;50.904;4.694;2023-07-31T07:27:36;18.40;99.90
8824;DHT22;4448;50.904;4.694;2023-07-31T07:30:02;18.40;99.90
8824;DHT22;4448;50.904;4.694;2023-07-31T07:32:28;18.40;99.90
8824;DHT22;4448;50.904;4.694;2023-07-31T07:34:53;18.40;99.90
8824;DHT22;4448;50.904;4.694;2023-07-31T07:37:20;18.40;99.90
8824;DHT22;4448;50.904;4.694;2023-07-31T07:39:46;18.50;99.90
8824;DHT22;4448;50.904;4.694;2023-07-31T07:42:11;18.50;99.90
8824;DHT22;4448;50.904;4.694;2023-07-31T07:44:37;18.50;99.90
8824;DHT22;4448;50.904;4.694;2023-07-31T07:47:03;18.60;99.90
8824;DHT22;4448;50.904;4.694;2023-07-31T07:49:32;18.50;99.90
8824;DHT22;4448;50.904;4.694;2023-07-31T07:51:58;18.50;99.90
8824;DHT22;4448;50.904;4.694;2023-07-31T07:54:24;18.50;99.90
8824;DHT22;4448;50.904;4.694;2023-07-31T07:56:49;18.60;99.90
8824;DHT22;4448;50.904;4.694;2023-07-31T07:59:15;18.60;99.90
8824;DHT22;4448;50.904;4.694;2023-07-31T08:01:41;18.60;99.90
8824;DHT22;4448;50.904;4.694;2023-07-31T08:04:06;18.70;99.90
8824;DHT22;4448;50.904;4.694;2023-07-31T08:06:32;18.70;99.90
8824;DHT22;4448;50.904;4.694;2023-07-31T08:08:58;18.60;99.90
8824;DHT22;4448;50.904;4.694;2023-07-31T08:11:24;18.80;99.90
8824;DHT22;4448;50.904;4.694;2023-07-31T08:13:50;18.70;99.90
8824;DHT22;4448;50.904;4.694;2023-07-31T08:16:16;19.00;99.90
8824;DHT22;4448;50.904;4.694;2023-07-31T08:18:41;18.70;99.90
8824;DHT22;4448;50.904;4.694;2023-07-31T08:21:08;18.80;99.90
8824;DHT22;4448;50.904;4.694;2023-07-31T08:23:34;18.80;99.90
8824;DHT22;4448;50.904;4.694;2023-07-31T08:26:00;18.80;99.90
8824;DHT22;4448;50.904;4.694;2023-07-31T08:28:25;18.80;99.90
8824;DHT22;4448;50.904;4.694;2023-07-31T08:30:51;18.90;99.90
8824;DHT22;4448;50.904;4.694;2023-07-31T08:33:16;18.90;99.90
8824;DHT22;4448;50.904;4.694;2023-07-31T08:35:42;18.90;99.90
8824;DHT22;4448;50.904;4.694;2023-07-31T08:38:08;18.90;99.90
8824;DHT22;4448;50.904;4.694;2023-07-31T08:40:36;18.90;99.90
8824;DHT22;4448;50.904;4.694;2023-07-31T08:43:03;19.00;99.90
8824;DHT22;4448;50.904;4.694;2023-07-31T08:45:30;19.00;99.90
8824;DHT22;4448;50.904;4.694;2023-07-31T08:47:57;19.00;99.90
8824;DHT22;4448;50.904;4.694;2023-07-31T08:50:24;19.00;99.90
8824;DHT22;4448;50.904;4.694;2023-07-31T08:52:51;19.00;99.90
8824;DHT22;4448;50.904;4.694;2023-07-31T08:55:17;19.10;99.90
8824;DHT22;4448;50.904;4.694;2023-07-31T08:57:49;19.10;99.90
8824;DHT22;4448;50.904;4.694;2023-07-31T09:00:15;19.10;99.90
8824;DHT22;4448;50.904;4.694;2023-07-31T09:02:59;19.10;99.90
8824;DHT22;4448;50.904;4.694;2023-07-31T09:05:26;19.10;99.90
8824;DHT22;4448;50.904;4.694;2023-07-31T09:07:53;19.10;99.90
8824;DHT22;4448;50.904;4.694;2023-07-31T09:10:21;19.10;99.90
8824;DHT22;4448;50.904;4.694;2023-07-31T09:12:46;19.10;99.90
8824;DHT22;4448;50.904;4.694;2023-07-31T09:15:13;19.20;99.90
8824;DHT22;4448;50.904;4.694;2023-07-31T09:17:39;19.20;99.90
8824;DHT22;4448;50.904;4.694;2023-07-31T09:20:18;19.30;99.90
8824;DHT22;4448;50.904;4.694;2023-07-31T09:22:45;19.20;99.90
8824;DHT22;4448;50.904;4.694;2023-07-31T09:25:21;19.20;99.90
8824;DHT22;4448;50.904;4.694;2023-07-31T09:27:52;19.30;99.90
8824;DHT22;4448;50.904;4.694;2023-07-31T09:30:18;19.20;99.90
8824;DHT22;4448;50.904;4.694;2023-07-31T09:32:45;19.40;99.90
8824;DHT22;4448;50.904;4.694;2023-07-31T09:35:20;19.20;99.90
8824;DHT22;4448;50.904;4.694;2023-07-31T09:37:55;19.20;99.90
8824;DHT22;4448;50.904;4.694;2023-07-31T09:40:45;19.20;99.90
8824;DHT22;4448;50.904;4.694;2023-07-31T09:43:13;19.40;99.90
8824;DHT22;4448;50.904;4.694;2023-07-31T09:45:40;19.40;99.90
8824;DHT22;4448;50.904;4.694;2023-07-31T09:48:14;19.30;99.90
8824;DHT22;4448;50.904;4.694;2023-07-31T09:50:45;19.30;99.90
8824;DHT22;4448;50.904;4.694;2023-07-31T09:53:11;19.80;99.90
8824;DHT22;4448;50.904;4.694;2023-07-31T09:55:38;19.60;99.90
8824;DHT22;4448;50.904;4.694;2023-07-31T09:58:06;19.60;99.90
8824;DHT22;4448;50.904;4.694;2023-07-31T10:00:35;19.90;99.90
8824;DHT22;4448;50.904;4.694;2023-07-31T10:03:10;19.80;99.90
8824;DHT22;4448;50.904;4.694;2023-07-31T10:06:02;19.90;99.90
8824;DHT22;4448;50.904;4.694;2023-07-31T10:08:30;19.90;99.90
8824;DHT22;4448;50.904;4.694;2023-07-31T10:11:01;20.00;99.90
8824;DHT22;4448;50.904;4.694;2023-07-31T10:13:29;20.00;99.90
8824;DHT22;4448;50.904;4.694;2023-07-31T10:15:59;20.00;99.90
8824;DHT22;4448;50.904;4.694;2023-07-31T10:18:25;19.90;99.90
8824;DHT22;4448;50.904;4.694;2023-07-31T10:20:52;19.90;99.90
8824;DHT22;4448;50.904;4.694;2023-07-31T10:23:18;20.00;99.90
8824;DHT22;4448;50.904;4.694;2023-07-31T10:25:45;20.00;99.90
8824;DHT22;4448;50.904;4.694;2023-07-31T10:28:12;19.90;99.90
8824;DHT22;4448;50.904;4.694;2023-07-31T10:30:39;20.00;99.90
8824;DHT22;4448;50.904;4.694;2023-07-31T10:33:05;19.90;99.90
8824;DHT22;4448;50.904;4.694;2023-07-31T10:35:32;20.00;99.90
8824;DHT22;4448;50.904;4.694;2023-07-31T10:38:10;20.00;99.90
8824;DHT22;4448;50.904;4.694;2023-07-31T10:40:37;20.00;99.90
8824;DHT22;4448;50.904;4.694;2023-07-31T10:43:03;20.20;99.90
8824;DHT22;4448;50.904;4.694;2023-07-31T10:48:03;20.30;99.90
8824;DHT22;4448;50.904;4.694;2023-07-31T10:50:31;20.50;99.90
8824;DHT22;4448;50.904;4.694;2023-07-31T10:53:00;20.30;99.90
8824;DHT22;4448;50.904;4.694;2023-07-31T10:55:41;20.40;99.90
8824;DHT22;4448;50.904;4.694;2023-07-31T10:58:18;20.60;99.90
8824;DHT22;4448;50.904;4.694;2023-07-31T11:00:45;20.40;99.90
8824;DHT22;4448;50.904;4.694;2023-07-31T11:03:16;20.30;99.90
8824;DHT22;4448;50.904;4.694;2023-07-31T11:05:50;20.40;99.90
8824;DHT22;4448;50.904;4.694;2023-07-31T11:08:23;20.40;99.90
8824;DHT22;4448;50.904;4.694;2023-07-31T11:13:50;20.20;99.90
8824;DHT22;4448;50.904;4.694;2023-07-31T11:16:20;20.40;99.90
8824;DHT22;4448;50.904;4.694;2023-07-31T11:18:47;20.40;99.90
8824;DHT22;4448;50.904;4.694;2023-07-31T11:21:23;20.40;99.90
8824;DHT22;4448;50.904;4.694;2023-07-31T11:23:52;20.50;99.90
8824;DHT22;4448;50.904;4.694;2023-07-31T11:26:18;20.70;99.90
8824;DHT22;4448;50.904;4.694;2023-07-31T11:28:47;20.60;99.90
8824;DHT22;4448;50.904;4.694;2023-07-31T11:31:13;20.70;99.90
8824;DHT22;4448;50.904;4.694;2023-07-31T11:33:38;20.60;99.90
8824;DHT22;4448;50.904;4.694;2023-07-31T11:36:04;20.50;99.90
8824;DHT22;4448;50.904;4.694;2023-07-31T11:38:32;20.70;99.90
8824;DHT22;4448;50.904;4.694;2023-07-31T11:41:03;20.90;99.90
8824;DHT22;4448;50.904;4.694;2023-07-31T11:43:31;21.10;99.90
8824;DHT22;4448;50.904;4.694;2023-07-31T11:45:58;20.90;99.90
8824;DHT22;4448;50.904;4.694;2023-07-31T11:48:30;20.90;99.90
8824;DHT22;4448;50.904;4.694;2023-07-31T11:51:00;20.90;99.90
8824;DHT22;4448;50.904;4.694;2023-07-31T11:53:40;21.00;99.90
8824;DHT22;4448;50.904;4.694;2023-07-31T11:56:09;20.80;99.90
8824;DHT22;4448;50.904;4.694;2023-07-31T11:58:37;21.00;99.90
8824;DHT22;4448;50.904;4.694;2023-07-31T12:01:04;21.00;99.90
8824;DHT22;4448;50.904;4.694;2023-07-31T12:03:31;21.00;99.90
8824;DHT22;4448;50.904;4.694;2023-07-31T12:05:58;20.80;99.90
8824;DHT22;4448;50.904;4.694;2023-07-31T12:08:24;21.00;99.90
8824;DHT22;4448;50.904;4.694;2023-07-31T12:10:51;20.80;99.90
8824;DHT22;4448;50.904;4.694;2023-07-31T12:13:25;20.80;99.90
8824;DHT22;4448;50.904;4.694;2023-07-31T12:15:56;20.80;99.90
8824;DHT22;4448;50.904;4.694;2023-07-31T12:18:25;20.70;99.90
8824;DHT22;4448;50.904;4.694;2023-07-31T12:20:59;20.80;99.90
8824;DHT22;4448;50.904;4.694;2023-07-31T12:23:27;20.70;99.90
8824;DHT22;4448;50.904;4.694;2023-07-31T12:26:01;20.90;99.90
8824;DHT22;4448;50.904;4.694;2023-07-31T12:28:26;20.70;99.90
8824;DHT22;4448;50.904;4.694;2023-07-31T12:30:57;20.70;99.90
8824;DHT22;4448;50.904;4.694;2023-07-31T12:33:23;20.90;99.90
8824;DHT22;4448;50.904;4.694;2023-07-31T12:35:49;20.80;99.90
8824;DHT22;4448;50.904;4.694;2023-07-31T12:38:15;20.80;99.90
8824;DHT22;4448;50.904;4.694;2023-07-31T12:40:41;20.80;99.90
8824;DHT22;4448;50.904;4.694;2023-07-31T12:43:08;20.80;99.90
8824;DHT22;4448;50.904;4.694;2023-07-31T12:45:34;20.80;99.90
8824;DHT22;4448;50.904;4.694;2023-07-31T12:48:01;21.00;99.90
8824;DHT22;4448;50.904;4.694;2023-07-31T12:50:27;20.80;99.90
8824;DHT22;4448;50.904;4.694;2023-07-31T12:52:56;20.90;99.90
8824;DHT22;4448;50.904;4.694;2023-07-31T12:55:22;21.00;99.90
8824;DHT22;4448;50.904;4.694;2023-07-31T12:57:49;20.90;99.90
8824;DHT22;4448;50.904;4.694;2023-07-31T13:00:14;21.00;99.90
8824;DHT22;4448;50.904;4.694;2023-07-31T13:02:40;20.80;99.90
8824;DHT22;4448;50.904;4.694;2023-07-31T13:05:06;21.10;99.90
8824;DHT22;4448;50.904;4.694;2023-07-31T13:07:32;20.90;99.90
8824;DHT22;4448;50.904;4.694;2023-07-31T13:09:57;21.10;99.90
8824;DHT22;4448;50.904;4.694;2023-07-31T13:12:23;21.00;99.90
8824;DHT22;4448;50.904;4.694;2023-07-31T13:14:50;21.00;99.90
8824;DHT22;4448;50.904;4.694;2023-07-31T13:17:16;21.00;99.90
8824;DHT22;4448;50.904;4.694;2023-07-31T13:19:42;21.00;99.90
8824;DHT22;4448;50.904;4.694;2023-07-31T13:22:08;21.10;99.90
8824;DHT22;4448;50.904;4.694;2023-07-31T13:24:34;21.00;99.90
8824;DHT22;4448;50.904;4.694;2023-07-31T13:26:59;20.90;99.90
8824;DHT22;4448;50.904;4.694;2023-07-31T13:29:25;21.10;99.90
8824;DHT22;4448;50.904;4.694;2023-07-31T13:31:52;20.80;99.90
8824;DHT22;4448;50.904;4.694;2023-07-31T13:34:18;21.00;99.90
8824;DHT22;4448;50.904;4.694;2023-07-31T13:36:44;20.90;99.90
8824;DHT22;4448;50.904;4.694;2023-07-31T13:39:09;20.80;99.90
8824;DHT22;4448;50.904;4.694;2023-07-31T13:41:35;20.90;99.90
8824;DHT22;4448;50.904;4.694;2023-07-31T13:44:01;20.60;99.90
8824;DHT22;4448;50.904;4.694;2023-07-31T13:46:26;20.50;99.90
8824;DHT22;4448;50.904;4.694;2023-07-31T13:48:52;20.70;99.90
8824;DHT22;4448;50.904;4.694;2023-07-31T13:51:21;20.40;99.90
8824;DHT22;4448;50.904;4.694;2023-07-31T13:53:47;20.40;99.90
8824;DHT22;4448;50.904;4.694;2023-07-31T13:56:13;20.30;99.90
8824;DHT22;4448;50.904;4.694;2023-07-31T13:58:39;20.20;99.90
8824;DHT22;4448;50.904;4.694;2023-07-31T14:01:04;20.20;99.90
8824;DHT22;4448;50.904;4.694;2023-07-31T14:03:30;20.20;99.90
8824;DHT22;4448;50.904;4.694;2023-07-31T14:05:56;20.10;99.90
8824;DHT22;4448;50.904;4.694;2023-07-31T14:08:22;20.00;99.90
8824;DHT22;4448;50.904;4.694;2023-07-31T14:10:47;20.00;99.90
8824;DHT22;4448;50.904;4.694;2023-07-31T14:13:13;19.90;99.90
8824;DHT22;4448;50.904;4.694;2023-07-31T14:15:42;20.00;99.90
8824;DHT22;4448;50.904;4.694;2023-07-31T14:18:11;19.90;99.90
8824;DHT22;4448;50.904;4.694;2023-07-31T14:20:40;19.90;99.90
8824;DHT22;4448;50.904;4.694;2023-07-31T14:23:08;19.80;99.90
8824;DHT22;4448;50.904;4.694;2023-07-31T14:25:34;19.90;99.90
8824;DHT22;4448;50.904;4.694;2023-07-31T14:27:59;19.90;99.90
8824;DHT22;4448;50.904;4.694;2023-07-31T14:30:25;19.80;99.90
8824;DHT22;4448;50.904;4.694;2023-07-31T14:32:51;19.70;99.90
8824;DHT22;4448;50.904;4.694;2023-07-31T14:35:16;19.80;99.90
8824;DHT22;4448;50.904;4.694;2023-07-31T14:37:43;19.70;99.90
8824;DHT22;4448;50.904;4.694;2023-07-31T14:40:11;19.70;99.90
8824;DHT22;4448;50.904;4.694;2023-07-31T14:42:38;19.80;99.90
8824;DHT22;4448;50.904;4.694;2023-07-31T14:45:04;19.70;99.90
8824;DHT22;4448;50.904;4.694;2023-07-31T14:47:30;19.70;99.90
8824;DHT22;4448;50.904;4.694;2023-07-31T14:49:57;19.70;99.90
8824;DHT22;4448;50.904;4.694;2023-07-31T14:52:23;19.60;99.90
8824;DHT22;4448;50.904;4.694;2023-07-31T14:54:49;19.60;99.90
8824;DHT22;4448;50.904;4.694;2023-07-31T14:57:14;19.60;99.90
8824;DHT22;4448;50.904;4.694;2023-07-31T14:59:40;19.60;99.90
8824;DHT22;4448;50.904;4.694;2023-07-31T15:02:07;19.60;99.90
8824;DHT22;4448;50.904;4.694;2023-07-31T15:04:33;19.60;99.90
8824;DHT22;4448;50.904;4.694;2023-07-31T15:06:59;19.60;99.90
8824;DHT22;4448;50.904;4.694;2023-07-31T15:09:25;19.60;99.90
8824;DHT22;4448;50.904;4.694;2023-07-31T15:11:50;19.60;99.90
8824;DHT22;4448;50.904;4.694;2023-07-31T15:14:16;19.60;99.90
8824;DHT22;4448;50.904;4.694;2023-07-31T15:16:42;19.60;99.90
8824;DHT22;4448;50.904;4.694;2023-07-31T15:19:07;19.50;99.90
8824;DHT22;4448;50.904;4.694;2023-07-31T15:21:33;19.50;99.90
8824;DHT22;4448;50.904;4.694;2023-07-31T15:23:59;19.50;99.90
8824;DHT22;4448;50.904;4.694;2023-07-31T15:26:24;19.50;99.90
8824;DHT22;4448;50.904;4.694;2023-07-31T15:28:56;19.50;99.90
8824;DHT22;4448;50.904;4.694;2023-07-31T15:31:21;19.50;99.90
8824;DHT22;4448;50.904;4.694;2023-07-31T15:33:50;19.50;99.90
8824;DHT22;4448;50.904;4.694;2023-07-31T15:36:16;19.60;99.90
8824;DHT22;4448;50.904;4.694;2023-07-31T15:38:42;19.50;99.90
8824;DHT22;4448;50.904;4.694;2023-07-31T15:41:08;19.40;99.90
8824;DHT22;4448;50.904;4.694;2023-07-31T15:43:34;19.40;99.90
8824;DHT22;4448;50.904;4.694;2023-07-31T15:46:00;19.40;99.90
8824;DHT22;4448;50.904;4.694;2023-07-31T15:48:25;19.40;99.90
8824;DHT22;4448;50.904;4.694;2023-07-31T15:50:51;19.40;99.90
8824;DHT22;4448;50.904;4.694;2023-07-31T15:53:17;19.40;99.90
8824;DHT22;4448;50.904;4.694;2023-07-31T15:55:42;19.40;99.90
8824;DHT22;4448;50.904;4.694;2023-07-31T15:58:08;19.40;99.90
8824;DHT22;4448;50.904;4.694;2023-07-31T16:00:34;19.40;99.90
8824;DHT22;4448;50.904;4.694;2023-07-31T16:02:59;19.40;99.90
8824;DHT22;4448;50.904;4.694;2023-07-31T16:05:25;19.40;99.90
8824;DHT22;4448;50.904;4.694;2023-07-31T16:07:51;19.40;99.90
8824;DHT22;4448;50.904;4.694;2023-07-31T16:10:16;19.40;99.90
8824;DHT22;4448;50.904;4.694;2023-07-31T16:12:42;19.30;99.90